Capitol Logistics 7324

Operating for MZN



KSEA
Seattle-Tacoma International Airport
Seattle, Washington
KCVG
Cincinnati/Northern Kentucky International Airport
Covington, Kentucky

Activity Log

Date Flight Route Aircraft Duration
No Flights Yet

Route Details

Aircraft Information
Primary: Boeing 767-300BDSF
Backup: Boeing 757-200SF
Route Data
Distance: 1706nm
Duration: 3h 58m
Recm'd Route: SEA NORMY J90 HLN J34 BIL J151 ONL OVR IRK ENL PXV SARGO3
Origin Wx: KSEA 180153Z 35005KT 10SM CLR 25/03 A3014 RMK AO2 SLP210 T02500028
Dest. Wx: KCVG 180152Z 21003KT 10SM CLR 07/04 A2993 RMK AO2 SLP133 T00720039
Notes: